sensor_id;sensor_type;location;lat;lon;timestamp;pressure;altitude;pressure_sealevel;temperature;humidity
71344;BME280;59146;43.850;25.948;2023-06-10T00:00:00;100490.06;;;20.04;52.60
71344;BME280;59146;43.850;25.948;2023-06-10T00:02:28;100512.19;;;19.95;54.01
71344;BME280;59146;43.850;25.948;2023-06-10T00:04:53;100471.31;;;19.62;54.57
71344;BME280;59146;43.850;25.948;2023-06-10T00:07:19;100485.00;;;19.58;56.44
71344;BME280;59146;43.850;25.948;2023-06-10T00:09:44;100439.84;;;19.32;56.72
71344;BME280;59146;43.850;25.948;2023-06-10T00:12:10;100483.50;;;19.28;57.73
71344;BME280;59146;43.850;25.948;2023-06-10T00:14:37;100461.22;;;18.94;60.14
71344;BME280;59146;43.850;25.948;2023-06-10T00:17:03;100491.13;;;19.04;59.38
71344;BME280;59146;43.850;25.948;2023-06-10T00:19:29;100465.50;;;18.77;58.57
71344;BME280;59146;43.850;25.948;2023-06-10T00:21:58;100474.03;;;18.98;59.09
71344;BME280;59146;43.850;25.948;2023-06-10T00:24:24;100450.28;;;18.89;59.85
71344;BME280;59146;43.850;25.948;2023-06-10T00:26:50;100475.38;;;18.85;61.07
71344;BME280;59146;43.850;25.948;2023-06-10T00:29:16;100501.13;;;18.83;62.03
71344;BME280;59146;43.850;25.948;2023-06-10T00:31:41;100454.63;;;18.24;63.38
71344;BME280;59146;43.850;25.948;2023-06-10T00:34:07;100496.19;;;18.61;62.92
71344;BME280;59146;43.850;25.948;2023-06-10T00:36:33;100505.50;;;18.74;62.78
71344;BME280;59146;43.850;25.948;2023-06-10T00:38:59;100506.78;;;18.61;63.10
71344;BME280;59146;43.850;25.948;2023-06-10T00:41:24;100525.81;;;18.74;63.25
71344;BME280;59146;43.850;25.948;2023-06-10T00:43:52;100468.00;;;18.23;63.64
71344;BME280;59146;43.850;25.948;2023-06-10T00:46:19;100419.78;;;17.92;63.30
71344;BME280;59146;43.850;25.948;2023-06-10T00:48:45;100551.69;;;18.80;62.60
71344;BME280;59146;43.850;25.948;2023-06-10T00:51:11;100449.94;;;18.09;62.26
71344;BME280;59146;43.850;25.948;2023-06-10T00:53:39;100523.84;;;18.76;60.91
71344;BME280;59146;43.850;25.948;2023-06-10T00:56:06;100524.00;;;18.74;60.68
71344;BME280;59146;43.850;25.948;2023-06-10T00:58:31;100532.78;;;18.65;60.97
71344;BME280;59146;43.850;25.948;2023-06-10T01:00:57;100502.22;;;18.44;60.65
71344;BME280;59146;43.850;25.948;2023-06-10T01:03:23;100459.38;;;18.31;60.13
71344;BME280;59146;43.850;25.948;2023-06-10T01:06:01;100503.44;;;18.40;60.49
71344;BME280;59146;43.850;25.948;2023-06-10T01:08:41;100490.09;;;18.51;60.38
71344;BME280;59146;43.850;25.948;2023-06-10T01:11:23;100504.34;;;18.77;60.01
71344;BME280;59146;43.850;25.948;2023-06-10T01:13:50;100528.16;;;18.77;60.89
71344;BME280;59146;43.850;25.948;2023-06-10T01:16:18;100488.25;;;18.61;61.26
71344;BME280;59146;43.850;25.948;2023-06-10T01:18:44;100499.41;;;18.55;62.17
71344;BME280;59146;43.850;25.948;2023-06-10T01:21:20;100488.88;;;18.26;62.97
71344;BME280;59146;43.850;25.948;2023-06-10T01:23:46;100459.91;;;18.24;62.30
71344;BME280;59146;43.850;25.948;2023-06-10T01:26:12;100477.59;;;18.14;62.98
71344;BME280;59146;43.850;25.948;2023-06-10T01:31:15;100511.00;;;18.15;63.98
71344;BME280;59146;43.850;25.948;2023-06-10T01:33:52;100511.97;;;17.95;64.70
71344;BME280;59146;43.850;25.948;2023-06-10T01:36:19;100513.09;;;18.02;64.75
71344;BME280;59146;43.850;25.948;2023-06-10T01:38:46;100505.56;;;17.98;64.82
71344;BME280;59146;43.850;25.948;2023-06-10T01:41:16;100532.84;;;18.08;64.87
71344;BME280;59146;43.850;25.948;2023-06-10T01:43:45;100492.22;;;18.09;64.29
71344;BME280;59146;43.850;25.948;2023-06-10T01:46:11;100454.69;;;17.86;64.00
71344;BME280;59146;43.850;25.948;2023-06-10T01:48:37;100496.66;;;18.08;63.77
71344;BME280;59146;43.850;25.948;2023-06-10T01:51:03;100426.72;;;17.36;64.89
71344;BME280;59146;43.850;25.948;2023-06-10T01:53:28;100439.75;;;17.47;65.14
71344;BME280;59146;43.850;25.948;2023-06-10T01:55:54;100516.69;;;18.01;64.97
71344;BME280;59146;43.850;25.948;2023-06-10T01:58:19;100474.97;;;17.76;65.22
71344;BME280;59146;43.850;25.948;2023-06-10T02:00:44;100464.41;;;17.76;64.93
71344;BME280;59146;43.850;25.948;2023-06-10T02:03:10;100474.97;;;17.76;64.86
71344;BME280;59146;43.850;25.948;2023-06-10T02:05:35;100447.63;;;17.68;64.32
71344;BME280;59146;43.850;25.948;2023-06-10T02:08:00;100432.75;;;17.57;64.14
71344;BME280;59146;43.850;25.948;2023-06-10T02:10:26;100507.78;;;18.21;64.42
71344;BME280;59146;43.850;25.948;2023-06-10T02:12:52;100510.84;;;18.17;64.65
71344;BME280;59146;43.850;25.948;2023-06-10T02:15:17;100433.00;;;17.73;65.20
71344;BME280;59146;43.850;25.948;2023-06-10T02:17:43;100508.38;;;17.96;66.91
71344;BME280;59146;43.850;25.948;2023-06-10T02:20:10;100519.22;;;18.12;66.55
71344;BME280;59146;43.850;25.948;2023-06-10T02:22:36;100502.53;;;18.02;66.22
71344;BME280;59146;43.850;25.948;2023-06-10T02:25:02;100466.09;;;17.58;65.58
71344;BME280;59146;43.850;25.948;2023-06-10T02:27:29;100543.56;;;17.78;66.44
71344;BME280;59146;43.850;25.948;2023-06-10T02:29:55;100537.59;;;17.95;65.52
71344;BME280;59146;43.850;25.948;2023-06-10T02:32:21;100547.31;;;18.04;65.79
71344;BME280;59146;43.850;25.948;2023-06-10T02:34:46;100510.31;;;17.94;65.06
71344;BME280;59146;43.850;25.948;2023-06-10T02:37:12;100483.91;;;17.66;64.93
71344;BME280;59146;43.850;25.948;2023-06-10T02:39:38;100543.13;;;17.82;65.94
71344;BME280;59146;43.850;25.948;2023-06-10T02:42:03;100519.31;;;17.54;66.33
71344;BME280;59146;43.850;25.948;2023-06-10T02:44:30;100483.00;;;17.46;65.78
71344;BME280;59146;43.850;25.948;2023-06-10T02:46:56;100560.94;;;17.80;66.07
71344;BME280;59146;43.850;25.948;2023-06-10T02:49:21;100552.72;;;17.83;66.51
71344;BME280;59146;43.850;25.948;2023-06-10T02:51:46;100475.09;;;17.46;68.70
71344;BME280;59146;43.850;25.948;2023-06-10T02:54:12;100525.75;;;17.89;68.42
71344;BME280;59146;43.850;25.948;2023-06-10T02:56:37;100491.53;;;17.59;69.09
71344;BME280;59146;43.850;25.948;2023-06-10T02:59:06;100521.84;;;17.93;69.15
71344;BME280;59146;43.850;25.948;2023-06-10T03:01:33;100501.97;;;17.89;68.54
71344;BME280;59146;43.850;25.948;2023-06-10T03:04:02;100524.78;;;17.90;68.87
71344;BME280;59146;43.850;25.948;2023-06-10T03:06:27;100538.97;;;18.47;68.20
71344;BME280;59146;43.850;25.948;2023-06-10T03:08:54;100502.06;;;18.91;65.14
71344;BME280;59146;43.850;25.948;2023-06-10T03:11:20;100563.75;;;19.83;62.71
71344;BME280;59146;43.850;25.948;2023-06-10T03:13:45;100550.81;;;20.33;60.76
71344;BME280;59146;43.850;25.948;2023-06-10T03:16:11;100543.38;;;20.19;60.33
71344;BME280;59146;43.850;25.948;2023-06-10T03:18:37;100569.75;;;20.03;61.36
71344;BME280;59146;43.850;25.948;2023-06-10T03:21:03;100487.31;;;18.89;63.45
71344;BME280;59146;43.850;25.948;2023-06-10T03:23:28;100494.16;;;18.45;65.36
71344;BME280;59146;43.850;25.948;2023-06-10T03:25:54;100525.59;;;18.39;66.84
71344;BME280;59146;43.850;25.948;2023-06-10T03:28:20;100539.31;;;18.80;65.42
71344;BME280;59146;43.850;25.948;2023-06-10T03:30:47;100523.47;;;19.08;64.49
71344;BME280;59146;43.850;25.948;2023-06-10T03:33:12;100525.53;;;19.31;63.62
71344;BME280;59146;43.850;25.948;2023-06-10T03:35:39;100529.00;;;20.39;60.03
71344;BME280;59146;43.850;25.948;2023-06-10T03:38:04;100482.00;;;20.57;57.76
71344;BME280;59146;43.850;25.948;2023-06-10T03:40:30;100564.50;;;20.89;57.58
71344;BME280;59146;43.850;25.948;2023-06-10T03:42:57;100546.91;;;20.63;58.29
71344;BME280;59146;43.850;25.948;2023-06-10T03:45:22;100568.31;;;20.43;59.48
71344;BME280;59146;43.850;25.948;2023-06-10T03:47:48;100470.63;;;19.78;59.40
71344;BME280;59146;43.850;25.948;2023-06-10T03:50:13;100508.50;;;20.49;57.75
71344;BME280;59146;43.850;25.948;2023-06-10T03:52:39;100506.72;;;20.14;58.40
71344;BME280;59146;43.850;25.948;2023-06-10T03:55:05;100513.00;;;20.13;58.32
71344;BME280;59146;43.850;25.948;2023-06-10T03:57:31;100460.84;;;19.78;58.55
71344;BME280;59146;43.850;25.948;2023-06-10T03:59:56;100502.50;;;20.04;58.39
71344;BME280;59146;43.850;25.948;2023-06-10T04:02:22;100522.63;;;20.14;58.04
71344;BME280;59146;43.850;25.948;2023-06-10T04:04:48;100560.59;;;20.32;58.24
71344;BME280;59146;43.850;25.948;2023-06-10T04:07:13;100517.19;;;19.80;58.88
71344;BME280;59146;43.850;25.948;2023-06-10T04:09:39;100512.03;;;19.61;58.50
71344;BME280;59146;43.850;25.948;2023-06-10T04:12:05;100584.13;;;20.27;58.13
71344;BME280;59146;43.850;25.948;2023-06-10T04:14:34;100557.59;;;20.27;57.64
71344;BME280;59146;43.850;25.948;2023-06-10T04:17:02;100562.91;;;20.27;57.80
71344;BME280;59146;43.850;25.948;2023-06-10T04:19:27;100584.69;;;20.82;56.57
71344;BME280;59146;43.850;25.948;2023-06-10T04:21:53;100588.25;;;21.16;55.65
71344;BME280;59146;43.850;25.948;2023-06-10T04:24:19;100589.84;;;21.43;55.00
71344;BME280;59146;43.850;25.948;2023-06-10T04:26:44;100515.75;;;21.82;52.61
71344;BME280;59146;43.850;25.948;2023-06-10T04:29:10;100538.72;;;22.47;50.74
71344;BME280;59146;43.850;25.948;2023-06-10T04:31:35;100546.88;;;23.17;48.94
71344;BME280;59146;43.850;25.948;2023-06-10T04:34:01;100519.38;;;23.32;47.90
71344;BME280;59146;43.850;25.948;2023-06-10T04:36:26;100539.25;;;23.83;46.51
71344;BME280;59146;43.850;25.948;2023-06-10T04:38:54;100514.22;;;23.23;47.04
71344;BME280;59146;43.850;25.948;2023-06-10T04:41:19;100536.34;;;22.76;49.09
71344;BME280;59146;43.850;25.948;2023-06-10T04:43:45;100530.16;;;22.92;48.63
71344;BME280;59146;43.850;25.948;2023-06-10T04:46:10;100513.13;;;23.48;47.40
71344;BME280;59146;43.850;25.948;2023-06-10T04:48:36;100513.16;;;23.40;47.00
71344;BME280;59146;43.850;25.948;2023-06-10T04:51:02;100526.78;;;23.06;48.10
71344;BME280;59146;43.850;25.948;2023-06-10T04:53:27;100526.38;;;22.78;49.10
71344;BME280;59146;43.850;25.948;2023-06-10T04:55:53;100510.97;;;23.05;49.01
71344;BME280;59146;43.850;25.948;2023-06-10T04:58:19;100531.06;;;24.67;44.97
71344;BME280;59146;43.850;25.948;2023-06-10T05:00:44;100436.13;;;24.65;43.74
71344;BME280;59146;43.850;25.948;2023-06-10T05:03:10;100568.75;;;25.95;42.84
71344;BME280;59146;43.850;25.948;2023-06-10T05:05:35;100540.34;;;25.94;42.60
71344;BME280;59146;43.850;25.948;2023-06-10T05:08:01;100544.53;;;25.32;43.41
71344;BME280;59146;43.850;25.948;2023-06-10T05:10:26;100559.13;;;24.49;45.37
71344;BME280;59146;43.850;25.948;2023-06-10T05:12:52;100583.50;;;23.92;48.00
71344;BME280;59146;43.850;25.948;2023-06-10T05:15:17;100588.22;;;24.58;46.65
71344;BME280;59146;43.850;25.948;2023-06-10T05:17:43;100581.25;;;25.09;45.37
71344;BME280;59146;43.850;25.948;2023-06-10T05:20:08;100566.19;;;24.79;45.80
71344;BME280;59146;43.850;25.948;2023-06-10T05:22:34;100573.81;;;24.44;46.57
71344;BME280;59146;43.850;25.948;2023-06-10T05:24:59;100578.94;;;23.78;47.86
71344;BME280;59146;43.850;25.948;2023-06-10T05:27:25;100563.31;;;23.75;48.49
71344;BME280;59146;43.850;25.948;2023-06-10T05:29:50;100572.78;;;24.08;47.83
71344;BME280;59146;43.850;25.948;2023-06-10T05:32:17;100525.72;;;23.62;47.51
71344;BME280;59146;43.850;25.948;2023-06-10T05:34:42;100570.81;;;23.41;49.24
71344;BME280;59146;43.850;25.948;2023-06-10T05:37:08;100557.25;;;23.04;49.88
71344;BME280;59146;43.850;25.948;2023-06-10T05:39:35;100599.09;;;23.42;49.41
71344;BME280;59146;43.850;25.948;2023-06-10T05:42:04;100602.13;;;23.31;50.26
71344;BME280;59146;43.850;25.948;2023-06-10T05:44:29;100553.97;;;22.85;50.80
71344;BME280;59146;43.850;25.948;2023-06-10T05:46:55;100528.03;;;22.55;51.32
71344;BME280;59146;43.850;25.948;2023-06-10T05:49:20;100594.25;;;22.90;51.76
71344;BME280;59146;43.850;25.948;2023-06-10T05:51:45;100571.13;;;22.51;53.17
71344;BME280;59146;43.850;25.948;2023-06-10T05:54:11;100535.69;;;22.50;52.79
71344;BME280;59146;43.850;25.948;2023-06-10T05:56:36;100541.03;;;22.42;52.97
71344;BME280;59146;43.850;25.948;2023-06-10T05:59:02;100552.31;;;22.52;53.01
71344;BME280;59146;43.850;25.948;2023-06-10T06:01:27;100507.13;;;22.28;53.54
71344;BME280;59146;43.850;25.948;2023-06-10T06:03:52;100592.44;;;22.67;54.23
71344;BME280;59146;43.850;25.948;2023-06-10T06:06:18;100591.94;;;22.55;54.59
71344;BME280;59146;43.850;25.948;2023-06-10T06:08:45;100550.34;;;22.30;54.99
71344;BME280;59146;43.850;25.948;2023-06-10T06:11:11;100544.50;;;22.67;53.86
71344;BME280;59146;43.850;25.948;2023-06-10T06:13:36;100585.59;;;22.88;52.79
71344;BME280;59146;43.850;25.948;2023-06-10T06:16:01;100602.53;;;23.12;51.83
71344;BME280;59146;43.850;25.948;2023-06-10T06:18:27;100539.69;;;21.98;53.63
71344;BME280;59146;43.850;25.948;2023-06-10T06:20:52;100588.75;;;22.44;53.43
71344;BME280;59146;43.850;25.948;2023-06-10T06:23:17;100588.59;;;22.53;53.43
71344;BME280;59146;43.850;25.948;2023-06-10T06:25:43;100585.78;;;22.63;53.16
71344;BME280;59146;43.850;25.948;2023-06-10T06:28:09;100551.66;;;22.42;52.88
71344;BME280;59146;43.850;25.948;2023-06-10T06:30:35;100515.78;;;22.22;52.64
71344;BME280;59146;43.850;25.948;2023-06-10T06:33:01;100558.66;;;22.11;53.74
71344;BME280;59146;43.850;25.948;2023-06-10T06:35:27;100553.69;;;22.24;53.57
71344;BME280;59146;43.850;25.948;2023-06-10T06:37:52;100534.38;;;22.38;52.92
71344;BME280;59146;43.850;25.948;2023-06-10T06:40:17;100604.41;;;22.71;53.61
71344;BME280;59146;43.850;25.948;2023-06-10T06:42:43;100590.44;;;22.61;53.41
71344;BME280;59146;43.850;25.948;2023-06-10T06:45:08;100595.75;;;22.69;53.55
71344;BME280;59146;43.850;25.948;2023-06-10T06:47:34;100559.31;;;22.53;52.78
71344;BME280;59146;43.850;25.948;2023-06-10T06:49:59;100579.28;;;22.81;52.19
71344;BME280;59146;43.850;25.948;2023-06-10T06:52:25;100573.94;;;22.33;53.71
71344;BME280;59146;43.850;25.948;2023-06-10T06:54:50;100597.25;;;22.71;53.38
71344;BME280;59146;43.850;25.948;2023-06-10T06:57:16;100594.25;;;22.90;53.38
71344;BME280;59146;43.850;25.948;2023-06-10T06:59:41;100543.00;;;22.48;52.94
71344;BME280;59146;43.850;25.948;2023-06-10T07:02:06;100573.91;;;22.89;52.36
71344;BME280;59146;43.850;25.948;2023-06-10T07:04:32;100566.44;;;22.93;51.46
71344;BME280;59146;43.850;25.948;2023-06-10T07:06:57;100543.47;;;22.92;51.63
71344;BME280;59146;43.850;25.948;2023-06-10T07:09:23;100442.22;;;22.53;50.32
71344;BME280;59146;43.850;25.948;2023-06-10T07:11:48;100501.50;;;22.94;50.57
71344;BME280;59146;43.850;25.948;2023-06-10T07:14:13;100588.03;;;23.61;50.65
71344;BME280;59146;43.850;25.948;2023-06-10T07:16:39;100573.31;;;23.26;51.47
71344;BME280;59146;43.850;25.948;2023-06-10T07:19:04;100557.81;;;23.30;51.52
71344;BME280;59146;43.850;25.948;2023-06-10T07:21:30;100546.50;;;23.36;52.09
71344;BME280;59146;43.850;25.948;2023-06-10T07:23:56;100545.66;;;23.43;51.44
71344;BME280;59146;43.850;25.948;2023-06-10T07:26:24;100571.13;;;23.38;50.37
71344;BME280;59146;43.850;25.948;2023-06-10T07:28:51;100573.81;;;23.30;50.49
71344;BME280;59146;43.850;25.948;2023-06-10T07:31:16;100598.97;;;23.74;50.13
71344;BME280;59146;43.850;25.948;2023-06-10T07:33:42;100570.72;;;23.57;50.13
71344;BME280;59146;43.850;25.948;2023-06-10T07:36:09;100561.50;;;23.67;50.20
71344;BME280;59146;43.850;25.948;2023-06-10T07:38:34;100570.53;;;23.66;50.06
71344;BME280;59146;43.850;25.948;2023-06-10T07:41:00;100582.97;;;24.05;49.21
71344;BME280;59146;43.850;25.948;2023-06-10T07:43:26;100547.50;;;23.96;49.57
71344;BME280;59146;43.850;25.948;2023-06-10T07:45:51;100532.41;;;24.03;48.60
71344;BME280;59146;43.850;25.948;2023-06-10T07:48:17;100472.38;;;24.07;48.40
71344;BME280;59146;43.850;25.948;2023-06-10T07:50:42;100597.06;;;24.96;47.59
71344;BME280;59146;43.850;25.948;2023-06-10T07:53:07;100572.19;;;24.81;48.12
71344;BME280;59146;43.850;25.948;2023-06-10T07:55:33;100539.06;;;24.53;47.88
71344;BME280;59146;43.850;25.948;2023-06-10T07:57:58;100553.47;;;24.43;48.63
71344;BME280;59146;43.850;25.948;2023-06-10T08:00:24;100531.47;;;24.79;48.04
71344;BME280;59146;43.850;25.948;2023-06-10T08:02:49;100535.72;;;25.17;46.52
71344;BME280;59146;43.850;25.948;2023-06-10T08:05:16;100536.69;;;25.31;46.82
71344;BME280;59146;43.850;25.948;2023-06-10T08:07:41;100554.31;;;25.25;45.93
71344;BME280;59146;43.850;25.948;2023-06-10T08:10:07;100568.47;;;25.69;46.07
71344;BME280;59146;43.850;25.948;2023-06-10T08:12:36;100566.94;;;25.46;46.49
71344;BME280;59146;43.850;25.948;2023-06-10T08:15:02;100556.34;;;25.23;47.22
71344;BME280;59146;43.850;25.948;2023-06-10T08:17:29;100516.28;;;24.79;47.17
71344;BME280;59146;43.850;25.948;2023-06-10T08:19:55;100544.19;;;25.06;47.60
71344;BME280;59146;43.850;25.948;2023-06-10T08:22:20;100531.09;;;24.82;47.08
71344;BME280;59146;43.850;25.948;2023-06-10T08:24:45;100538.00;;;24.76;48.69
71344;BME280;59146;43.850;25.948;2023-06-10T08:27:11;100579.28;;;24.88;48.58
71344;BME280;59146;43.850;25.948;2023-06-10T08:29:36;100517.19;;;24.34;49.05
71344;BME280;59146;43.850;25.948;2023-06-10T08:32:02;100583.91;;;24.72;48.48
71344;BME280;59146;43.850;25.948;2023-06-10T08:34:28;100512.00;;;24.18;48.78
71344;BME280;59146;43.850;25.948;2023-06-10T08:36:53;100529.16;;;24.38;49.12
71344;BME280;59146;43.850;25.948;2023-06-10T08:39:21;100523.09;;;24.44;48.23
71344;BME280;59146;43.850;25.948;2023-06-10T08:42:00;100589.69;;;24.83;48.37
71344;BME280;59146;43.850;25.948;2023-06-10T08:44:30;100532.41;;;24.49;47.58
71344;BME280;59146;43.850;25.948;2023-06-10T08:47:00;100568.84;;;24.79;47.57
71344;BME280;59146;43.850;25.948;2023-06-10T08:49:27;100579.66;;;25.00;47.61
71344;BME280;59146;43.850;25.948;2023-06-10T08:51:58;100537.19;;;24.76;47.47
71344;BME280;59146;43.850;25.948;2023-06-10T08:54:31;100547.41;;;25.01;47.95
71344;BME280;59146;43.850;25.948;2023-06-10T08:56:59;100517.00;;;25.02;46.83
71344;BME280;59146;43.850;25.948;2023-06-10T08:59:25;100551.69;;;25.61;45.80
71344;BME280;59146;43.850;25.948;2023-06-10T09:01:52;100550.47;;;25.78;45.33
71344;BME280;59146;43.850;25.948;2023-06-10T09:04:18;100564.69;;;25.78;45.66
71344;BME280;59146;43.850;25.948;2023-06-10T09:06:45;100533.22;;;25.45;45.61
71344;BME280;59146;43.850;25.948;2023-06-10T09:09:12;100559.28;;;25.93;45.57
71344;BME280;59146;43.850;25.948;2023-06-10T09:11:39;100508.72;;;25.83;44.91
71344;BME280;59146;43.850;25.948;2023-06-10T09:14:05;100515.47;;;25.79;45.29
71344;BME280;59146;43.850;25.948;2023-06-10T09:16:31;100559.53;;;26.40;44.25
71344;BME280;59146;43.850;25.948;2023-06-10T09:18:56;100563.03;;;25.98;44.95
71344;BME280;59146;43.850;25.948;2023-06-10T09:21:25;100510.50;;;25.97;44.57
71344;BME280;59146;43.850;25.948;2023-06-10T09:23:51;100554.47;;;26.52;44.42
71344;BME280;59146;43.850;25.948;2023-06-10T09:26:17;100508.25;;;26.16;44.79
71344;BME280;59146;43.850;25.948;2023-06-10T09:28:44;100499.56;;;26.35;44.19
71344;BME280;59146;43.850;25.948;2023-06-10T09:31:10;100552.88;;;26.57;44.64
71344;BME280;59146;43.850;25.948;2023-06-10T09:33:38;100476.94;;;26.44;44.00
71344;BME280;59146;43.850;25.948;2023-06-10T09:36:04;100507.56;;;26.56;44.38
71344;BME280;59146;43.850;25.948;2023-06-10T09:38:32;100502.41;;;26.61;44.38
71344;BME280;59146;43.850;25.948;2023-06-10T09:40:58;100499.66;;;26.75;43.43
71344;BME280;59146;43.850;25.948;2023-06-10T09:43:44;100501.03;;;26.99;43.26
71344;BME280;59146;43.850;25.948;2023-06-10T09:46:18;100480.22;;;27.01;42.65
71344;BME280;59146;43.850;25.948;2023-06-10T09:48:45;100523.34;;;27.13;42.82
71344;BME280;59146;43.850;25.948;2023-06-10T09:51:12;100531.16;;;27.48;41.92
71344;BME280;59146;43.850;25.948;2023-06-10T09:53:38;100488.38;;;27.34;41.74
71344;BME280;59146;43.850;25.948;2023-06-10T09:56:04;100445.63;;;27.19;40.89
71344;BME280;59146;43.850;25.948;2023-06-10T09:58:53;100493.44;;;27.57;40.81
71344;BME280;59146;43.850;25.948;2023-06-10T10:01:18;100513.47;;;27.61;41.49
71344;BME280;59146;43.850;25.948;2023-06-10T10:03:50;100512.47;;;27.68;41.34
71344;BME280;59146;43.850;25.948;2023-06-10T10:06:17;100512.69;;;27.86;40.91
71344;BME280;59146;43.850;25.948;2023-06-10T10:08:44;100500.31;;;27.79;40.15
71344;BME280;59146;43.850;25.948;2023-06-10T10:11:10;100450.34;;;27.65;40.30
71344;BME280;59146;43.850;25.948;2023-06-10T10:13:35;100491.41;;;27.59;39.98
71344;BME280;59146;43.850;25.948;2023-06-10T10:16:06;100508.91;;;27.54;40.68
71344;BME280;59146;43.850;25.948;2023-06-10T10:18:35;100469.19;;;28.04;39.88
71344;BME280;59146;43.850;25.948;2023-06-10T10:21:08;100476.63;;;28.21;38.84
71344;BME280;59146;43.850;25.948;2023-06-10T10:23:53;100523.47;;;28.84;38.55
71344;BME280;59146;43.850;25.948;2023-06-10T10:26:21;100513.88;;;29.15;37.91
71344;BME280;59146;43.850;25.948;2023-06-10T10:29:05;100461.22;;;28.87;37.01
71344;BME280;59146;43.850;25.948;2023-06-10T10:31:34;100473.34;;;29.16;35.78
71344;BME280;59146;43.850;25.948;2023-06-10T10:34:05;100446.00;;;29.26;34.92
71344;BME280;59146;43.850;25.948;2023-06-10T10:36:32;100503.72;;;29.74;34.27
71344;BME280;59146;43.850;25.948;2023-06-10T10:38:58;100486.19;;;29.52;33.31
71344;BME280;59146;43.850;25.948;2023-06-10T10:41:24;100481.44;;;29.54;33.95
71344;BME280;59146;43.850;25.948;2023-06-10T10:43:52;100385.09;;;28.93;33.41
71344;BME280;59146;43.850;25.948;2023-06-10T10:46:18;100480.44;;;29.86;32.87
71344;BME280;59146;43.850;25.948;2023-06-10T10:48:44;100452.31;;;30.07;32.52
71344;BME280;59146;43.850;25.948;2023-06-10T10:51:11;100427.75;;;29.97;32.53
71344;BME280;59146;43.850;25.948;2023-06-10T10:53:37;100452.44;;;30.18;32.37
71344;BME280;59146;43.850;25.948;2023-06-10T10:56:07;100464.59;;;30.21;32.59
71344;BME280;59146;43.850;25.948;2023-06-10T10:58:34;100461.84;;;30.27;33.00
71344;BME280;59146;43.850;25.948;2023-06-10T11:00:59;100468.19;;;30.15;33.20
71344;BME280;59146;43.850;25.948;2023-06-10T11:03:42;100482.06;;;30.43;32.69
71344;BME280;59146;43.850;25.948;2023-06-10T11:06:18;100429.19;;;30.42;30.78
71344;BME280;59146;43.850;25.948;2023-06-10T11:11:23;100458.28;;;30.58;31.54
71344;BME280;59146;43.850;25.948;2023-06-10T11:16:30;100410.47;;;30.29;30.49
71344;BME280;59146;43.850;25.948;2023-06-10T11:19:02;100419.56;;;30.71;27.79
71344;BME280;59146;43.850;25.948;2023-06-10T11:21:28;100407.53;;;30.91;27.36
71344;BME280;59146;43.850;25.948;2023-06-10T11:23:53;100442.19;;;30.88;27.45
71344;BME280;59146;43.850;25.948;2023-06-10T11:31:23;100454.72;;;31.30;27.26
71344;BME280;59146;43.850;25.948;2023-06-10T11:33:53;100394.06;;;31.21;26.79
71344;BME280;59146;43.850;25.948;2023-06-10T11:36:18;100447.13;;;31.57;26.34
71344;BME280;59146;43.850;25.948;2023-06-10T11:38:45;100440.22;;;31.61;26.60
71344;BME280;59146;43.850;25.948;2023-06-10T11:41:13;100424.00;;;31.31;26.55
71344;BME280;59146;43.850;25.948;2023-06-10T11:43:45;100310.13;;;30.51;28.05
71344;BME280;59146;43.850;25.948;2023-06-10T11:46:12;100398.81;;;31.07;27.54
71344;BME280;59146;43.850;25.948;2023-06-10T11:48:37;100395.09;;;31.20;26.76
71344;BME280;59146;43.850;25.948;2023-06-10T11:51:09;100389.38;;;30.98;27.16
71344;BME280;59146;43.850;25.948;2023-06-10T11:53:35;100414.72;;;31.27;26.31
71344;BME280;59146;43.850;25.948;2023-06-10T11:56:00;100381.28;;;31.28;27.02
71344;BME280;59146;43.850;25.948;2023-06-10T11:58:26;100361.69;;;31.21;26.66
71344;BME280;59146;43.850;25.948;2023-06-10T12:00:53;100355.56;;;31.55;25.82
71344;BME280;59146;43.850;25.948;2023-06-10T12:03:20;100374.56;;;31.49;25.61
71344;BME280;59146;43.850;25.948;2023-06-10T12:05:58;100412.50;;;32.06;24.86
71344;BME280;59146;43.850;25.948;2023-06-10T12:08:24;100391.22;;;31.98;24.78
71344;BME280;59146;43.850;25.948;2023-06-10T12:10:50;100395.06;;;31.79;24.63
71344;BME280;59146;43.850;25.948;2023-06-10T12:13:16;100325.97;;;31.07;24.06
71344;BME280;59146;43.850;25.948;2023-06-10T12:15:43;100376.94;;;31.27;24.61
71344;BME280;59146;43.850;25.948;2023-06-10T12:18:19;100398.06;;;31.30;25.33
71344;BME280;59146;43.850;25.948;2023-06-10T12:20:45;100383.97;;;30.98;25.60
71344;BME280;59146;43.850;25.948;2023-06-10T12:23:11;100338.88;;;31.17;25.29
71344;BME280;59146;43.850;25.948;2023-06-10T12:25:37;100335.59;;;31.45;26.47
71344;BME280;59146;43.850;25.948;2023-06-10T12:28:04;100384.63;;;31.94;26.59
71344;BME280;59146;43.850;25.948;2023-06-10T12:30:31;100361.97;;;31.84;26.39
71344;BME280;59146;43.850;25.948;2023-06-10T12:32:56;100392.59;;;31.89;26.60
71344;BME280;59146;43.850;25.948;2023-06-10T12:35:23;100376.22;;;31.61;25.45
71344;BME280;59146;43.850;25.948;2023-06-10T12:38:05;100324.75;;;30.92;25.22
71344;BME280;59146;43.850;25.948;2023-06-10T12:40:34;100373.25;;;31.10;27.11
71344;BME280;59146;43.850;25.948;2023-06-10T12:43:02;100374.94;;;30.75;25.27
71344;BME280;59146;43.850;25.948;2023-06-10T12:45:37;100374.34;;;30.73;25.38
71344;BME280;59146;43.850;25.948;2023-06-10T12:50:37;100378.53;;;30.87;25.90
71344;BME280;59146;43.850;25.948;2023-06-10T12:53:03;100328.34;;;30.86;26.95